Dawson, Texas
Current Conditions -  °F | °C
As of 4:15 PM on Thursday 23 Oct 2014 (Local Time) from KLXY Reporting Station
Clear Clear  
Wind Chill: 78°   Ceiling: Unl
Heat Index: 79°   Visibility: 10mi
Dew Point: 58°   Wind: 5mph
Humidity: 50%   Direction: 120°ESE
Pressure: 30.08"   Gusts: NA
Location:  31.89°N, 96.71°W
Report Text: KLXY 232115Z AUTO 12004KT 10SM CLR 25/14 A3008 RMK AO2 T02540142
Loading
Personal Weather Stations






























Interactive Weather Map
Tropical Storm Tracking
New forecast layout! Learn more

10-Day Weather Forecast

Advertisements
Track Severe Weather on mobile